sensor_id;sensor_type;location;lat;lon;timestamp;temperature;humidity
34542;DHT22;20784;51.332;12.410;2023-05-07T00:00:51;10.60;99.90
34542;DHT22;20784;51.332;12.410;2023-05-07T00:03:17;10.50;99.90
34542;DHT22;20784;51.332;12.410;2023-05-07T00:05:48;10.50;99.90
34542;DHT22;20784;51.332;12.410;2023-05-07T00:08:14;10.50;99.90
34542;DHT22;20784;51.332;12.410;2023-05-07T00:10:40;10.50;99.90
34542;DHT22;20784;51.332;12.410;2023-05-07T00:13:06;10.50;99.90
34542;DHT22;20784;51.332;12.410;2023-05-07T00:15:32;10.60;99.90
34542;DHT22;20784;51.332;12.410;2023-05-07T00:17:57;10.50;99.90
34542;DHT22;20784;51.332;12.410;2023-05-07T00:20:24;10.50;99.90
34542;DHT22;20784;51.332;12.410;2023-05-07T00:22:50;10.50;99.90
34542;DHT22;20784;51.332;12.410;2023-05-07T00:25:16;10.50;99.90
34542;DHT22;20784;51.332;12.410;2023-05-07T00:27:41;10.50;99.90
34542;DHT22;20784;51.332;12.410;2023-05-07T00:30:07;10.50;99.90
34542;DHT22;20784;51.332;12.410;2023-05-07T00:32:33;10.40;99.90
34542;DHT22;20784;51.332;12.410;2023-05-07T00:34:59;10.50;99.90
34542;DHT22;20784;51.332;12.410;2023-05-07T00:37:25;10.50;99.90
34542;DHT22;20784;51.332;12.410;2023-05-07T00:39:50;10.50;99.90
34542;DHT22;20784;51.332;12.410;2023-05-07T00:42:16;10.60;99.90
34542;DHT22;20784;51.332;12.410;2023-05-07T00:44:41;10.50;99.90
34542;DHT22;20784;51.332;12.410;2023-05-07T00:47:10;10.40;99.90
34542;DHT22;20784;51.332;12.410;2023-05-07T00:49:38;10.50;99.90
34542;DHT22;20784;51.332;12.410;2023-05-07T00:52:06;10.40;99.90
34542;DHT22;20784;51.332;12.410;2023-05-07T00:54:41;10.30;99.90
34542;DHT22;20784;51.332;12.410;2023-05-07T00:57:06;10.30;99.90
34542;DHT22;20784;51.332;12.410;2023-05-07T00:59:34;10.30;99.90
34542;DHT22;20784;51.332;12.410;2023-05-07T01:02:00;10.30;99.90
34542;DHT22;20784;51.332;12.410;2023-05-07T01:04:26;10.30;99.90
34542;DHT22;20784;51.332;12.410;2023-05-07T01:06:56;10.30;99.90
34542;DHT22;20784;51.332;12.410;2023-05-07T01:09:29;10.30;99.90
34542;DHT22;20784;51.332;12.410;2023-05-07T01:11:59;10.30;99.90
34542;DHT22;20784;51.332;12.410;2023-05-07T01:14:25;10.30;99.90
34542;DHT22;20784;51.332;12.410;2023-05-07T01:16:51;10.40;99.90
34542;DHT22;20784;51.332;12.410;2023-05-07T01:19:22;10.30;99.90
34542;DHT22;20784;51.332;12.410;2023-05-07T01:21:48;10.30;99.90
34542;DHT22;20784;51.332;12.410;2023-05-07T01:24:15;10.20;99.90
34542;DHT22;20784;51.332;12.410;2023-05-07T01:26:41;10.20;99.90
34542;DHT22;20784;51.332;12.410;2023-05-07T01:29:07;10.20;99.90
34542;DHT22;20784;51.332;12.410;2023-05-07T01:31:34;10.20;99.90
34542;DHT22;20784;51.332;12.410;2023-05-07T01:34:01;10.20;99.90
34542;DHT22;20784;51.332;12.410;2023-05-07T01:36:29;10.20;99.90
34542;DHT22;20784;51.332;12.410;2023-05-07T01:38:55;10.30;99.90
34542;DHT22;20784;51.332;12.410;2023-05-07T01:41:23;10.40;99.90
34542;DHT22;20784;51.332;12.410;2023-05-07T01:43:50;10.40;99.90
34542;DHT22;20784;51.332;12.410;2023-05-07T01:46:19;10.30;99.90
34542;DHT22;20784;51.332;12.410;2023-05-07T01:48:45;10.30;99.90
34542;DHT22;20784;51.332;12.410;2023-05-07T01:51:11;10.20;99.90
34542;DHT22;20784;51.332;12.410;2023-05-07T01:53:38;10.20;99.90
34542;DHT22;20784;51.332;12.410;2023-05-07T01:56:04;10.10;99.90
34542;DHT22;20784;51.332;12.410;2023-05-07T01:58:30;10.10;99.90
34542;DHT22;20784;51.332;12.410;2023-05-07T02:00:56;10.10;99.90
34542;DHT22;20784;51.332;12.410;2023-05-07T02:03:21;10.10;99.90
34542;DHT22;20784;51.332;12.410;2023-05-07T02:05:47;10.20;99.90
34542;DHT22;20784;51.332;12.410;2023-05-07T02:08:13;10.40;99.90
34542;DHT22;20784;51.332;12.410;2023-05-07T02:10:38;10.00;99.90
34542;DHT22;20784;51.332;12.410;2023-05-07T02:13:04;10.30;99.90
34542;DHT22;20784;51.332;12.410;2023-05-07T02:15:30;10.30;99.90
34542;DHT22;20784;51.332;12.410;2023-05-07T02:18:04;10.30;99.90
34542;DHT22;20784;51.332;12.410;2023-05-07T02:20:29;10.30;99.90
34542;DHT22;20784;51.332;12.410;2023-05-07T02:22:55;10.20;99.90
34542;DHT22;20784;51.332;12.410;2023-05-07T02:25:21;10.20;99.90
34542;DHT22;20784;51.332;12.410;2023-05-07T02:27:49;10.20;99.90
34542;DHT22;20784;51.332;12.410;2023-05-07T02:30:15;10.20;99.90
34542;DHT22;20784;51.332;12.410;2023-05-07T02:32:41;10.10;99.90
34542;DHT22;20784;51.332;12.410;2023-05-07T02:35:07;10.10;99.90
34542;DHT22;20784;51.332;12.410;2023-05-07T02:37:33;10.10;99.90
34542;DHT22;20784;51.332;12.410;2023-05-07T02:39:58;10.20;99.90
34542;DHT22;20784;51.332;12.410;2023-05-07T02:42:24;10.20;99.90
34542;DHT22;20784;51.332;12.410;2023-05-07T02:44:51;10.20;99.90
34542;DHT22;20784;51.332;12.410;2023-05-07T02:47:16;10.30;99.90
34542;DHT22;20784;51.332;12.410;2023-05-07T02:49:42;10.20;99.90
34542;DHT22;20784;51.332;12.410;2023-05-07T02:52:08;10.00;99.90
34542;DHT22;20784;51.332;12.410;2023-05-07T02:54:33;10.10;99.90
34542;DHT22;20784;51.332;12.410;2023-05-07T02:56:59;10.20;99.90
34542;DHT22;20784;51.332;12.410;2023-05-07T02:59:26;10.10;99.90
34542;DHT22;20784;51.332;12.410;2023-05-07T03:01:51;10.10;99.90
34542;DHT22;20784;51.332;12.410;2023-05-07T03:04:17;10.10;99.90
34542;DHT22;20784;51.332;12.410;2023-05-07T03:06:42;10.10;99.90
34542;DHT22;20784;51.332;12.410;2023-05-07T03:09:08;10.10;99.90
34542;DHT22;20784;51.332;12.410;2023-05-07T03:11:34;10.10;99.90
34542;DHT22;20784;51.332;12.410;2023-05-07T03:14:01;10.10;99.90
34542;DHT22;20784;51.332;12.410;2023-05-07T03:16:29;10.20;99.90
34542;DHT22;20784;51.332;12.410;2023-05-07T03:18:55;10.20;99.90
34542;DHT22;20784;51.332;12.410;2023-05-07T03:21:21;10.10;99.90
34542;DHT22;20784;51.332;12.410;2023-05-07T03:23:46;10.00;99.90
34542;DHT22;20784;51.332;12.410;2023-05-07T03:26:14;10.10;99.90
34542;DHT22;20784;51.332;12.410;2023-05-07T03:28:40;10.10;99.90
34542;DHT22;20784;51.332;12.410;2023-05-07T03:31:05;10.00;99.90
34542;DHT22;20784;51.332;12.410;2023-05-07T03:33:33;10.10;99.90
34542;DHT22;20784;51.332;12.410;2023-05-07T03:36:01;10.10;99.90
34542;DHT22;20784;51.332;12.410;2023-05-07T03:38:27;10.10;99.90
34542;DHT22;20784;51.332;12.410;2023-05-07T03:40:53;10.30;99.90
34542;DHT22;20784;51.332;12.410;2023-05-07T03:43:18;10.10;99.90
34542;DHT22;20784;51.332;12.410;2023-05-07T03:45:44;10.10;99.90
34542;DHT22;20784;51.332;12.410;2023-05-07T03:48:10;10.10;99.90
34542;DHT22;20784;51.332;12.410;2023-05-07T03:50:38;10.10;99.90
34542;DHT22;20784;51.332;12.410;2023-05-07T03:53:03;10.10;99.90
34542;DHT22;20784;51.332;12.410;2023-05-07T03:55:29;10.10;99.90
34542;DHT22;20784;51.332;12.410;2023-05-07T03:57:55;10.00;99.90
34542;DHT22;20784;51.332;12.410;2023-05-07T04:00:21;10.00;99.90
34542;DHT22;20784;51.332;12.410;2023-05-07T04:02:47;10.00;99.90
34542;DHT22;20784;51.332;12.410;2023-05-07T04:05:14;10.00;99.90
34542;DHT22;20784;51.332;12.410;2023-05-07T04:07:40;10.00;99.90
34542;DHT22;20784;51.332;12.410;2023-05-07T04:10:06;10.10;99.90
34542;DHT22;20784;51.332;12.410;2023-05-07T04:12:32;10.00;99.90
34542;DHT22;20784;51.332;12.410;2023-05-07T04:14:57;10.00;99.90
34542;DHT22;20784;51.332;12.410;2023-05-07T04:17:23;10.10;99.90
34542;DHT22;20784;51.332;12.410;2023-05-07T04:19:48;10.00;99.90
34542;DHT22;20784;51.332;12.410;2023-05-07T04:22:14;10.00;99.90
34542;DHT22;20784;51.332;12.410;2023-05-07T04:24:39;10.00;99.90
34542;DHT22;20784;51.332;12.410;2023-05-07T04:27:05;10.00;99.90
34542;DHT22;20784;51.332;12.410;2023-05-07T04:29:31;10.00;99.90
34542;DHT22;20784;51.332;12.410;2023-05-07T04:31:57;10.00;99.90
34542;DHT22;20784;51.332;12.410;2023-05-07T04:34:24;10.00;99.90
34542;DHT22;20784;51.332;12.410;2023-05-07T04:36:49;10.10;99.90
34542;DHT22;20784;51.332;12.410;2023-05-07T04:39:15;10.20;99.90
34542;DHT22;20784;51.332;12.410;2023-05-07T04:41:41;10.20;99.90
34542;DHT22;20784;51.332;12.410;2023-05-07T04:44:07;10.40;99.90
34542;DHT22;20784;51.332;12.410;2023-05-07T04:46:32;10.40;99.90
34542;DHT22;20784;51.332;12.410;2023-05-07T04:48:58;10.30;99.90
34542;DHT22;20784;51.332;12.410;2023-05-07T04:51:29;10.30;99.90
34542;DHT22;20784;51.332;12.410;2023-05-07T04:53:58;10.20;99.90
34542;DHT22;20784;51.332;12.410;2023-05-07T04:56:23;10.20;99.90
34542;DHT22;20784;51.332;12.410;2023-05-07T04:58:49;10.10;99.90
34542;DHT22;20784;51.332;12.410;2023-05-07T05:01:15;10.00;99.90
34542;DHT22;20784;51.332;12.410;2023-05-07T05:03:40;10.10;99.90
34542;DHT22;20784;51.332;12.410;2023-05-07T05:06:06;10.20;99.90
34542;DHT22;20784;51.332;12.410;2023-05-07T05:08:34;10.10;99.90
34542;DHT22;20784;51.332;12.410;2023-05-07T05:11:01;10.20;99.90
34542;DHT22;20784;51.332;12.410;2023-05-07T05:13:27;10.10;99.90
34542;DHT22;20784;51.332;12.410;2023-05-07T05:15:53;10.10;99.90
34542;DHT22;20784;51.332;12.410;2023-05-07T05:18:19;10.20;99.90
34542;DHT22;20784;51.332;12.410;2023-05-07T05:20:50;10.20;99.90
34542;DHT22;20784;51.332;12.410;2023-05-07T05:23:19;10.20;99.90
34542;DHT22;20784;51.332;12.410;2023-05-07T05:25:45;10.30;99.90
34542;DHT22;20784;51.332;12.410;2023-05-07T05:28:11;10.30;99.90
34542;DHT22;20784;51.332;12.410;2023-05-07T05:30:39;10.20;99.90
34542;DHT22;20784;51.332;12.410;2023-05-07T05:33:12;10.20;99.90
34542;DHT22;20784;51.332;12.410;2023-05-07T05:35:38;10.30;99.90
34542;DHT22;20784;51.332;12.410;2023-05-07T05:38:22;10.40;99.90
34542;DHT22;20784;51.332;12.410;2023-05-07T05:40:50;10.30;99.90
34542;DHT22;20784;51.332;12.410;2023-05-07T05:43:16;10.20;99.90
34542;DHT22;20784;51.332;12.410;2023-05-07T05:45:41;10.40;99.90
34542;DHT22;20784;51.332;12.410;2023-05-07T05:48:10;10.30;99.90
34542;DHT22;20784;51.332;12.410;2023-05-07T05:50:35;10.40;99.90
34542;DHT22;20784;51.332;12.410;2023-05-07T05:53:02;10.30;99.90
34542;DHT22;20784;51.332;12.410;2023-05-07T05:55:28;10.30;99.90
34542;DHT22;20784;51.332;12.410;2023-05-07T05:57:53;10.00;99.90
34542;DHT22;20784;51.332;12.410;2023-05-07T06:00:19;10.10;99.90
34542;DHT22;20784;51.332;12.410;2023-05-07T06:02:47;10.10;99.90
34542;DHT22;20784;51.332;12.410;2023-05-07T06:05:13;10.20;99.90
34542;DHT22;20784;51.332;12.410;2023-05-07T06:07:41;10.20;99.90
34542;DHT22;20784;51.332;12.410;2023-05-07T06:10:07;10.20;99.90
34542;DHT22;20784;51.332;12.410;2023-05-07T06:12:33;10.30;99.90
34542;DHT22;20784;51.332;12.410;2023-05-07T06:14:58;10.40;99.90
34542;DHT22;20784;51.332;12.410;2023-05-07T06:17:24;10.40;99.90
34542;DHT22;20784;51.332;12.410;2023-05-07T06:19:50;10.50;99.90
34542;DHT22;20784;51.332;12.410;2023-05-07T06:22:16;10.40;99.90
34542;DHT22;20784;51.332;12.410;2023-05-07T06:24:41;10.40;99.90
34542;DHT22;20784;51.332;12.410;2023-05-07T06:27:07;10.50;99.90
34542;DHT22;20784;51.332;12.410;2023-05-07T06:29:33;10.50;99.90
34542;DHT22;20784;51.332;12.410;2023-05-07T06:32:12;10.50;99.90
34542;DHT22;20784;51.332;12.410;2023-05-07T06:34:38;10.40;99.90
34542;DHT22;20784;51.332;12.410;2023-05-07T06:37:04;10.40;99.90
34542;DHT22;20784;51.332;12.410;2023-05-07T06:39:30;10.30;99.90
34542;DHT22;20784;51.332;12.410;2023-05-07T06:42:00;10.40;99.90
34542;DHT22;20784;51.332;12.410;2023-05-07T06:44:25;10.30;99.90
34542;DHT22;20784;51.332;12.410;2023-05-07T06:46:51;10.40;99.90
34542;DHT22;20784;51.332;12.410;2023-05-07T06:49:16;10.40;99.90
34542;DHT22;20784;51.332;12.410;2023-05-07T06:51:45;10.60;99.90
34542;DHT22;20784;51.332;12.410;2023-05-07T06:54:11;10.60;99.90
34542;DHT22;20784;51.332;12.410;2023-05-07T06:56:39;10.60;99.90
34542;DHT22;20784;51.332;12.410;2023-05-07T06:59:07;10.50;99.90
34542;DHT22;20784;51.332;12.410;2023-05-07T07:01:35;10.60;99.90
34542;DHT22;20784;51.332;12.410;2023-05-07T07:04:01;10.60;99.90
34542;DHT22;20784;51.332;12.410;2023-05-07T07:06:26;10.60;99.90
34542;DHT22;20784;51.332;12.410;2023-05-07T07:08:55;10.60;99.90
34542;DHT22;20784;51.332;12.410;2023-05-07T07:11:24;10.80;99.90
34542;DHT22;20784;51.332;12.410;2023-05-07T07:13:49;10.80;99.90
34542;DHT22;20784;51.332;12.410;2023-05-07T07:16:16;10.80;99.90
34542;DHT22;20784;51.332;12.410;2023-05-07T07:18:41;10.80;99.90
34542;DHT22;20784;51.332;12.410;2023-05-07T07:21:07;10.90;99.90
34542;DHT22;20784;51.332;12.410;2023-05-07T07:23:33;10.90;99.90
34542;DHT22;20784;51.332;12.410;2023-05-07T07:26:01;11.00;99.90
34542;DHT22;20784;51.332;12.410;2023-05-07T07:28:27;11.00;99.90
34542;DHT22;20784;51.332;12.410;2023-05-07T07:30:53;11.00;99.90
34542;DHT22;20784;51.332;12.410;2023-05-07T07:33:21;11.20;99.90
34542;DHT22;20784;51.332;12.410;2023-05-07T07:35:49;11.00;99.90
34542;DHT22;20784;51.332;12.410;2023-05-07T07:38:16;11.00;99.90
34542;DHT22;20784;51.332;12.410;2023-05-07T07:40:42;11.00;99.90
34542;DHT22;20784;51.332;12.410;2023-05-07T07:43:11;11.20;99.90
34542;DHT22;20784;51.332;12.410;2023-05-07T07:45:36;11.00;99.90
34542;DHT22;20784;51.332;12.410;2023-05-07T07:48:05;11.10;99.90
34542;DHT22;20784;51.332;12.410;2023-05-07T07:50:30;11.20;99.90
34542;DHT22;20784;51.332;12.410;2023-05-07T07:52:56;11.20;99.90
34542;DHT22;20784;51.332;12.410;2023-05-07T07:55:23;11.20;99.90
34542;DHT22;20784;51.332;12.410;2023-05-07T07:57:49;11.20;99.90
34542;DHT22;20784;51.332;12.410;2023-05-07T08:00:15;11.30;99.90
34542;DHT22;20784;51.332;12.410;2023-05-07T08:02:41;11.20;99.90
34542;DHT22;20784;51.332;12.410;2023-05-07T08:05:07;11.20;99.90
34542;DHT22;20784;51.332;12.410;2023-05-07T08:07:33;11.20;99.90
34542;DHT22;20784;51.332;12.410;2023-05-07T08:09:58;11.20;99.90
34542;DHT22;20784;51.332;12.410;2023-05-07T08:12:24;11.20;99.90
34542;DHT22;20784;51.332;12.410;2023-05-07T08:14:50;11.20;99.90
34542;DHT22;20784;51.332;12.410;2023-05-07T08:17:15;11.40;99.90
34542;DHT22;20784;51.332;12.410;2023-05-07T08:19:42;11.20;99.90
34542;DHT22;20784;51.332;12.410;2023-05-07T08:22:09;11.30;99.90
34542;DHT22;20784;51.332;12.410;2023-05-07T08:24:35;11.30;99.90
34542;DHT22;20784;51.332;12.410;2023-05-07T08:27:01;11.50;99.90
34542;DHT22;20784;51.332;12.410;2023-05-07T08:29:26;11.40;99.90
34542;DHT22;20784;51.332;12.410;2023-05-07T08:31:52;11.40;99.90
34542;DHT22;20784;51.332;12.410;2023-05-07T08:34:21;11.40;99.90
34542;DHT22;20784;51.332;12.410;2023-05-07T08:36:47;11.50;99.90
34542;DHT22;20784;51.332;12.410;2023-05-07T08:39:15;11.50;99.90
34542;DHT22;20784;51.332;12.410;2023-05-07T08:41:45;11.30;99.90
34542;DHT22;20784;51.332;12.410;2023-05-07T08:44:16;11.40;99.90
34542;DHT22;20784;51.332;12.410;2023-05-07T08:46:45;11.40;99.90
34542;DHT22;20784;51.332;12.410;2023-05-07T08:49:13;11.30;99.90
34542;DHT22;20784;51.332;12.410;2023-05-07T08:51:45;11.30;99.90
34542;DHT22;20784;51.332;12.410;2023-05-07T08:54:11;11.20;99.90
34542;DHT22;20784;51.332;12.410;2023-05-07T08:56:37;11.40;99.90
34542;DHT22;20784;51.332;12.410;2023-05-07T08:59:05;11.40;99.90
34542;DHT22;20784;51.332;12.410;2023-05-07T09:01:30;11.40;99.90
34542;DHT22;20784;51.332;12.410;2023-05-07T09:03:57;11.40;99.90
34542;DHT22;20784;51.332;12.410;2023-05-07T09:06:23;11.70;99.90
34542;DHT22;20784;51.332;12.410;2023-05-07T09:08:50;11.50;99.90
34542;DHT22;20784;51.332;12.410;2023-05-07T09:11:16;11.50;99.90
34542;DHT22;20784;51.332;12.410;2023-05-07T09:13:44;11.50;99.90
34542;DHT22;20784;51.332;12.410;2023-05-07T09:16:11;11.60;99.90
34542;DHT22;20784;51.332;12.410;2023-05-07T09:18:46;11.60;99.90
34542;DHT22;20784;51.332;12.410;2023-05-07T09:21:17;11.50;99.90
34542;DHT22;20784;51.332;12.410;2023-05-07T09:23:51;11.60;99.90
34542;DHT22;20784;51.332;12.410;2023-05-07T09:26:17;11.60;99.90
34542;DHT22;20784;51.332;12.410;2023-05-07T09:28:44;11.60;99.90
34542;DHT22;20784;51.332;12.410;2023-05-07T09:31:13;11.50;99.90
34542;DHT22;20784;51.332;12.410;2023-05-07T09:33:39;11.60;99.90
34542;DHT22;20784;51.332;12.410;2023-05-07T09:36:06;11.60;99.90
34542;DHT22;20784;51.332;12.410;2023-05-07T09:38:33;11.70;99.90
34542;DHT22;20784;51.332;12.410;2023-05-07T09:41:04;11.70;99.90
34542;DHT22;20784;51.332;12.410;2023-05-07T09:43:34;11.70;99.90
34542;DHT22;20784;51.332;12.410;2023-05-07T09:46:12;11.70;99.90
34542;DHT22;20784;51.332;12.410;2023-05-07T09:48:40;11.70;99.90
34542;DHT22;20784;51.332;12.410;2023-05-07T09:51:16;11.50;99.90
34542;DHT22;20784;51.332;12.410;2023-05-07T09:53:43;11.60;99.90
34542;DHT22;20784;51.332;12.410;2023-05-07T09:56:12;11.50;99.90
34542;DHT22;20784;51.332;12.410;2023-05-07T09:58:40;11.60;99.90
34542;DHT22;20784;51.332;12.410;2023-05-07T10:01:14;11.70;99.90
34542;DHT22;20784;51.332;12.410;2023-05-07T10:03:41;11.80;99.90
34542;DHT22;20784;51.332;12.410;2023-05-07T10:06:09;11.90;99.90
34542;DHT22;20784;51.332;12.410;2023-05-07T10:08:36;11.80;99.90
34542;DHT22;20784;51.332;12.410;2023-05-07T10:11:04;12.00;99.90
34542;DHT22;20784;51.332;12.410;2023-05-07T10:13:32;11.80;99.90
34542;DHT22;20784;51.332;12.410;2023-05-07T10:15:59;11.80;99.90
34542;DHT22;20784;51.332;12.410;2023-05-07T10:18:25;11.70;99.90
34542;DHT22;20784;51.332;12.410;2023-05-07T10:21:02;11.60;99.90
34542;DHT22;20784;51.332;12.410;2023-05-07T10:23:34;11.60;99.90
34542;DHT22;20784;51.332;12.410;2023-05-07T10:26:05;11.80;99.90
34542;DHT22;20784;51.332;12.410;2023-05-07T10:28:40;11.80;99.90
34542;DHT22;20784;51.332;12.410;2023-05-07T10:31:23;11.70;99.90
34542;DHT22;20784;51.332;12.410;2023-05-07T10:33:57;11.70;99.90
34542;DHT22;20784;51.332;12.410;2023-05-07T10:36:23;11.80;99.90
34542;DHT22;20784;51.332;12.410;2023-05-07T10:38:51;11.80;99.90
34542;DHT22;20784;51.332;12.410;2023-05-07T10:41:17;11.90;99.90
34542;DHT22;20784;51.332;12.410;2023-05-07T10:43:45;12.00;99.90
34542;DHT22;20784;51.332;12.410;2023-05-07T10:46:18;12.00;99.90
34542;DHT22;20784;51.332;12.410;2023-05-07T10:51:31;12.20;99.90
34542;DHT22;20784;51.332;12.410;2023-05-07T10:56:39;12.30;99.90
34542;DHT22;20784;51.332;12.410;2023-05-07T11:01:59;12.30;99.90
34542;DHT22;20784;51.332;12.410;2023-05-07T11:04:37;12.20;99.90
34542;DHT22;20784;51.332;12.410;2023-05-07T11:10:00;12.30;99.90
34542;DHT22;20784;51.332;12.410;2023-05-07T11:15:14;12.30;99.90
34542;DHT22;20784;51.332;12.410;2023-05-07T11:17:58;12.60;99.90
34542;DHT22;20784;51.332;12.410;2023-05-07T11:20:51;12.70;99.90
34542;DHT22;20784;51.332;12.410;2023-05-07T11:26:28;12.60;99.90
34542;DHT22;20784;51.332;12.410;2023-05-07T11:28:54;12.70;99.90
34542;DHT22;20784;51.332;12.410;2023-05-07T11:31:33;12.70;99.90
34542;DHT22;20784;51.332;12.410;2023-05-07T11:33:59;12.40;99.90
34542;DHT22;20784;51.332;12.410;2023-05-07T11:36:30;12.60;99.90
34542;DHT22;20784;51.332;12.410;2023-05-07T11:39:03;12.60;99.90
34542;DHT22;20784;51.332;12.410;2023-05-07T11:41:44;12.60;99.90
34542;DHT22;20784;51.332;12.410;2023-05-07T11:44:10;12.80;99.90
34542;DHT22;20784;51.332;12.410;2023-05-07T11:46:36;12.90;99.90
34542;DHT22;20784;51.332;12.410;2023-05-07T11:49:02;13.10;99.90
34542;DHT22;20784;51.332;12.410;2023-05-07T11:51:27;13.10;99.90
34542;DHT22;20784;51.332;12.410;2023-05-07T11:53:53;13.00;99.90
34542;DHT22;20784;51.332;12.410;2023-05-07T11:56:19;12.80;99.90
34542;DHT22;20784;51.332;12.410;2023-05-07T11:58:46;12.70;99.90
34542;DHT22;20784;51.332;12.410;2023-05-07T12:01:13;12.70;99.90
34542;DHT22;20784;51.332;12.410;2023-05-07T12:03:45;12.70;99.90
34542;DHT22;20784;51.332;12.410;2023-05-07T12:06:15;12.80;99.90
34542;DHT22;20784;51.332;12.410;2023-05-07T12:08:42;12.80;99.90
34542;DHT22;20784;51.332;12.410;2023-05-07T12:11:22;12.90;99.90
34542;DHT22;20784;51.332;12.410;2023-05-07T12:13:48;12.80;99.90
34542;DHT22;20784;51.332;12.410;2023-05-07T12:16:14;12.70;99.90
34542;DHT22;20784;51.332;12.410;2023-05-07T12:18:40;12.70;99.90
34542;DHT22;20784;51.332;12.410;2023-05-07T12:21:08;12.80;99.90
34542;DHT22;20784;51.332;12.410;2023-05-07T12:23:38;13.00;99.90
34542;DHT22;20784;51.332;12.410;2023-05-07T12:26:04;12.90;99.90
34542;DHT22;20784;51.332;12.410;2023-05-07T12:28:36;13.00;99.90
34542;DHT22;20784;51.332;12.410;2023-05-07T12:31:02;13.00;99.90
34542;DHT22;20784;51.332;12.410;2023-05-07T12:33:43;13.20;99.90
34542;DHT22;20784;51.332;12.410;2023-05-07T12:36:12;13.20;99.90
34542;DHT22;20784;51.332;12.410;2023-05-07T12:38:39;13.40;99.90
34542;DHT22;20784;51.332;12.410;2023-05-07T12:41:08;13.50;99.90
34542;DHT22;20784;51.332;12.410;2023-05-07T12:43:34;13.30;99.90
34542;DHT22;20784;51.332;12.410;2023-05-07T12:46:05;13.50;99.90
34542;DHT22;20784;51.332;12.410;2023-05-07T12:48:36;13.60;99.90
34542;DHT22;20784;51.332;12.410;2023-05-07T12:51:08;13.60;99.90
34542;DHT22;20784;51.332;12.410;2023-05-07T12:53:40;13.70;99.90
34542;DHT22;20784;51.332;12.410;2023-05-07T12:56:07;14.00;99.90
34542;DHT22;20784;51.332;12.410;2023-05-07T12:58:36;13.80;99.90
34542;DHT22;20784;51.332;12.410;2023-05-07T13:01:07;14.00;99.90
34542;DHT22;20784;51.332;12.410;2023-05-07T13:03:34;14.00;99.90
34542;DHT22;20784;51.332;12.410;2023-05-07T13:06:10;14.10;99.90
34542;DHT22;20784;51.332;12.410;2023-05-07T13:08:44;14.30;99.90
34542;DHT22;20784;51.332;12.410;2023-05-07T13:11:11;14.40;99.90
34542;DHT22;20784;51.332;12.410;2023-05-07T13:13:41;14.40;99.90
34542;DHT22;20784;51.332;12.410;2023-05-07T13:16:11;14.60;99.90
34542;DHT22;20784;51.332;12.410;2023-05-07T13:18:38;14.80;99.90
34542;DHT22;20784;51.332;12.410;2023-05-07T13:21:04;14.90;99.90
34542;DHT22;20784;51.332;12.410;2023-05-07T13:23:30;15.00;99.90
34542;DHT22;20784;51.332;12.410;2023-05-07T13:25:56;14.80;99.90
34542;DHT22;20784;51.332;12.410;2023-05-07T13:28:25;14.60;99.90
34542;DHT22;20784;51.332;12.410;2023-05-07T13:30:52;14.40;99.90
34542;DHT22;20784;51.332;12.410;2023-05-07T13:33:20;14.30;99.90
34542;DHT22;20784;51.332;12.410;2023-05-07T13:35:46;14.20;99.90
34542;DHT22;20784;51.332;12.410;2023-05-07T13:38:11;14.20;99.90
34542;DHT22;20784;51.332;12.410;2023-05-07T13:40:37;14.30;99.90
34542;DHT22;20784;51.332;12.410;2023-05-07T13:43:13;14.50;99.90
34542;DHT22;20784;51.332;12.410;2023-05-07T13:45:42;14.50;99.90
34542;DHT22;20784;51.332;12.410;2023-05-07T13:48:11;14.50;99.90
34542;DHT22;20784;51.332;12.410;2023-05-07T13:50:37;14.40;99.90
34542;DHT22;20784;51.332;12.410;2023-05-07T13:53:02;14.30;99.90
34542;DHT22;20784;51.332;12.410;2023-05-07T13:55:30;14.30;99.90
34542;DHT22;20784;51.332;12.410;2023-05-07T13:57:58;14.30;99.90
34542;DHT22;20784;51.332;12.410;2023-05-07T14:00:25;14.30;99.90
34542;DHT22;20784;51.332;12.410;2023-05-07T14:02:51;14.20;99.90
34542;DHT22;20784;51.332;12.410;2023-05-07T14:05:17;14.50;99.90
34542;DHT22;20784;51.332;12.410;2023-05-07T14:07:46;14.20;99.90
34542;DHT22;20784;51.332;12.410;2023-05-07T14:10:19;14.30;99.90
34542;DHT22;20784;51.332;12.410;2023-05-07T14:12:48;14.40;99.90
34542;DHT22;20784;51.332;12.410;2023-05-07T14:15:13;14.30;99.90
34542;DHT22;20784;51.332;12.410;2023-05-07T14:17:39;14.20;99.90
34542;DHT22;20784;51.332;12.410;2023-05-07T14:20:05;14.30;99.90
34542;DHT22;20784;51.332;12.410;2023-05-07T14:22:41;14.30;99.90
34542;DHT22;20784;51.332;12.410;2023-05-07T14:25:11;14.10;99.90
34542;DHT22;20784;51.332;12.410;2023-05-07T14:27:44;14.20;99.90
34542;DHT22;20784;51.332;12.410;2023-05-07T14:30:10;14.10;99.90
34542;DHT22;20784;51.332;12.410;2023-05-07T14:32:36;14.20;99.90
34542;DHT22;20784;51.332;12.410;2023-05-07T14:35:02;14.30;99.90
34542;DHT22;20784;51.332;12.410;2023-05-07T14:37:27;14.30;99.90
34542;DHT22;20784;51.332;12.410;2023-05-07T14:39:56;14.30;99.90
34542;DHT22;20784;51.332;12.410;2023-05-07T14:42:21;14.30;99.90
34542;DHT22;20784;51.332;12.410;2023-05-07T14:44:53;14.30;99.90
34542;DHT22;20784;51.332;12.410;2023-05-07T14:47:18;14.30;99.90
34542;DHT22;20784;51.332;12.410;2023-05-07T14:49:46;14.40;99.90
34542;DHT22;20784;51.332;12.410;2023-05-07T14:52:14;14.70;99.90
34542;DHT22;20784;51.332;12.410;2023-05-07T14:54:40;15.00;99.90
34542;DHT22;20784;51.332;12.410;2023-05-07T14:57:09;15.00;99.90
34542;DHT22;20784;51.332;12.410;2023-05-07T14:59:35;14.90;99.90
34542;DHT22;20784;51.332;12.410;2023-05-07T15:02:11;14.90;99.90
34542;DHT22;20784;51.332;12.410;2023-05-07T15:04:44;14.70;99.90
34542;DHT22;20784;51.332;12.410;2023-05-07T15:07:15;14.60;99.90
34542;DHT22;20784;51.332;12.410;2023-05-07T15:09:52;14.60;99.90
34542;DHT22;20784;51.332;12.410;2023-05-07T15:12:30;14.50;99.90
34542;DHT22;20784;51.332;12.410;2023-05-07T15:14:55;14.50;99.90
34542;DHT22;20784;51.332;12.410;2023-05-07T15:17:21;14.40;99.90
34542;DHT22;20784;51.332;12.410;2023-05-07T15:19:47;14.50;99.90
34542;DHT22;20784;51.332;12.410;2023-05-07T15:22:12;14.50;99.90
34542;DHT22;20784;51.332;12.410;2023-05-07T15:24:39;14.40;99.90
34542;DHT22;20784;51.332;12.410;2023-05-07T15:27:06;14.10;99.90
34542;DHT22;20784;51.332;12.410;2023-05-07T15:29:32;14.20;99.90
34542;DHT22;20784;51.332;12.410;2023-05-07T15:32:01;14.10;99.90
34542;DHT22;20784;51.332;12.410;2023-05-07T15:34:38;14.10;99.90